createdAt,value
2022-09-07T00:01:36.765Z,1.05
2022-09-07T00:06:38.634Z,1.05
2022-09-07T00:11:40.114Z,1.08
2022-09-07T00:16:41.636Z,0.88
2022-09-07T00:21:43.201Z,1.10
2022-09-07T00:26:44.726Z,0.75
2022-09-07T00:31:46.338Z,0.73
2022-09-07T00:36:47.858Z,0.90
2022-09-07T00:41:49.333Z,0.90
2022-09-07T00:46:50.863Z,0.90
2022-09-07T00:51:54.182Z,0.77
2022-09-07T00:56:55.726Z,0.80
2022-09-07T01:01:57.346Z,1.00
2022-09-07T01:06:59.084Z,0.73
2022-09-07T01:12:01.283Z,0.90
2022-09-07T01:17:17.514Z,1.25
2022-09-07T01:22:37.739Z,0.73
2022-09-07T01:27:39.178Z,0.70
2022-09-07T01:32:59.463Z,0.63
2022-09-07T01:38:07.074Z,1.10
2022-09-07T01:43:12.738Z,0.80
2022-09-07T01:48:17.926Z,0.63
2022-09-07T01:53:24.293Z,0.65
2022-09-07T01:58:51.933Z,0.70
2022-09-07T02:04:02.985Z,0.80
2022-09-07T02:09:16.538Z,0.60
2022-09-07T02:14:23.197Z,0.70
2022-09-07T02:19:26.648Z,0.60
2022-09-07T02:24:35.318Z,0.75
2022-09-07T02:29:38.188Z,0.55
2022-09-07T02:34:39.758Z,0.55
2022-09-07T02:39:41.277Z,0.98
2022-09-07T02:44:45.596Z,0.65
2022-09-07T02:49:49.805Z,0.75
2022-09-07T02:55:00.637Z,0.80
2022-09-07T03:00:02.114Z,0.73
2022-09-07T03:05:18.033Z,0.85
2022-09-07T03:10:19.784Z,0.70
2022-09-07T03:15:23.058Z,0.80
2022-09-07T03:20:24.580Z,0.70
2022-09-07T03:25:26.054Z,0.82
2022-09-07T03:30:27.540Z,0.70
2022-09-07T03:35:29.046Z,0.57
2022-09-07T03:40:30.506Z,0.68
2022-09-07T03:45:32.000Z,0.93
2022-09-07T03:50:33.463Z,0.70
2022-09-07T03:55:34.977Z,0.63
2022-09-07T04:00:40.637Z,0.63
2022-09-07T04:05:42.107Z,0.60
2022-09-07T04:10:43.716Z,0.80
2022-09-07T04:15:45.598Z,0.63
2022-09-07T04:20:47.557Z,0.75
2022-09-07T04:25:49.440Z,0.45
2022-09-07T04:30:50.947Z,0.55
2022-09-07T04:35:52.600Z,0.68
2022-09-07T04:41:06.801Z,0.80
2022-09-07T04:46:11.246Z,0.70
2022-09-07T04:51:12.790Z,0.77
2022-09-07T04:56:16.993Z,0.63
2022-09-07T05:01:20.080Z,0.88
2022-09-07T05:06:22.345Z,0.63
2022-09-07T05:11:28.676Z,0.70
2022-09-07T05:16:31.167Z,0.65
2022-09-07T05:21:33.484Z,0.75
2022-09-07T05:26:36.268Z,1.30
2022-09-07T05:31:37.757Z,0.80
2022-09-07T05:36:39.441Z,0.68
2022-09-07T05:41:41.130Z,0.70
2022-09-07T05:46:42.628Z,0.82
2022-09-07T05:51:44.097Z,0.90
2022-09-07T05:56:45.605Z,1.00
2022-09-07T06:01:47.282Z,0.75
2022-09-07T06:07:17.731Z,0.73
2022-09-07T06:12:10.298Z,0.70
2022-09-07T06:17:11.779Z,0.60
2022-09-07T06:22:13.406Z,0.73
2022-09-07T06:27:14.986Z,0.60
2022-09-07T06:37:38.334Z,0.57
2022-09-07T06:42:39.996Z,0.80
2022-09-07T06:47:41.526Z,0.88
2022-09-07T06:58:04.519Z,0.60
2022-09-07T07:03:05.978Z,0.60
2022-09-07T07:08:07.482Z,0.60
2022-09-07T07:13:09.016Z,0.65
2022-09-07T07:18:20.811Z,0.65
2022-09-07T07:23:22.892Z,0.50
2022-09-07T07:33:49.072Z,0.20
2022-09-07T07:44:00.573Z,0.30
2022-09-07T07:49:02.165Z,0.20
2022-09-07T07:54:03.650Z,0.25
2022-09-07T07:59:05.202Z,0.20
2022-09-07T08:04:06.631Z,0.13
2022-09-07T08:09:08.086Z,0.20
2022-09-07T08:14:09.653Z,0.38
2022-09-07T08:19:11.374Z,0.32
2022-09-07T08:24:12.803Z,0.17
2022-09-07T08:29:14.755Z,0.57
2022-09-07T08:34:16.277Z,0.30
2022-09-07T08:39:17.809Z,0.20
2022-09-07T08:44:32.077Z,0.20
2022-09-07T08:49:36.658Z,0.38
2022-09-07T08:54:38.649Z,0.20
2022-09-07T08:59:43.014Z,0.20
2022-09-07T09:10:05.905Z,0.22
2022-09-07T09:15:13.458Z,0.20
2022-09-07T09:20:14.951Z,0.30
2022-09-07T09:25:20.972Z,0.20
2022-09-07T09:30:23.206Z,0.30
2022-09-07T09:35:37.718Z,0.28
2022-09-07T09:40:39.254Z,0.17
2022-09-07T09:56:46.937Z,0.30
2022-09-07T10:07:26.021Z,0.10
2022-09-07T10:12:35.023Z,0.30
2022-09-07T10:17:42.129Z,0.15
2022-09-07T10:22:46.615Z,0.08
2022-09-07T10:28:00.693Z,0.20
2022-09-07T10:33:05.066Z,0.10
2022-09-07T10:38:22.892Z,0.10
2022-09-07T10:43:24.292Z,0.10
2022-09-07T10:48:54.938Z,0.10
2022-09-07T10:54:31.025Z,0.25
2022-09-07T11:05:16.937Z,0.20
2022-09-07T11:10:18.345Z,0.10
2022-09-07T11:15:19.849Z,0.28
2022-09-07T11:20:24.375Z,0.20
2022-09-07T11:25:32.815Z,0.10
2022-09-07T11:30:40.537Z,0.10
2022-09-07T11:35:58.713Z,0.20
2022-09-07T11:41:12.086Z,0.20
2022-09-07T11:46:15.897Z,0.20
2022-09-07T11:51:26.663Z,0.40
2022-09-07T11:56:36.216Z,0.10
2022-09-07T12:01:44.053Z,0.20
2022-09-07T12:06:51.644Z,0.22
2022-09-07T12:12:05.715Z,0.25
2022-09-07T12:17:26.689Z,0.38
2022-09-07T12:22:28.128Z,0.20
2022-09-07T12:27:29.546Z,0.15
2022-09-07T12:32:54.504Z,0.40
2022-09-07T12:38:24.174Z,0.10
2022-09-07T12:43:28.470Z,0.05
2022-09-07T12:48:29.902Z,0.15
2022-09-07T12:53:52.131Z,0.10
2022-09-07T12:59:00.027Z,0.20
2022-09-07T13:04:18.478Z,0.15
2022-09-07T13:09:28.105Z,0.20
2022-09-07T13:14:29.799Z,0.40
2022-09-07T13:19:46.578Z,0.20
2022-09-07T13:24:50.565Z,0.20
2022-09-07T13:29:55.519Z,0.13
2022-09-07T13:35:06.202Z,0.10
2022-09-07T13:40:10.113Z,0.10
2022-09-07T13:45:26.616Z,0.10
2022-09-07T13:50:33.886Z,0.32
2022-09-07T13:55:41.149Z,0.30
2022-09-07T14:00:56.323Z,0.20
2022-09-07T14:06:26.215Z,0.20
2022-09-07T14:11:29.302Z,0.20
2022-09-07T14:16:30.812Z,0.13
2022-09-07T14:21:32.386Z,0.03
2022-09-07T14:26:34.344Z,0.20
2022-09-07T14:31:36.003Z,0.40
2022-09-07T14:36:45.732Z,0.20
2022-09-07T14:41:48.371Z,0.10
2022-09-07T14:46:55.116Z,0.20
2022-09-07T14:51:58.413Z,0.28
2022-09-07T14:57:12.167Z,0.10
2022-09-07T15:02:24.097Z,0.22
2022-09-07T15:07:39.017Z,0.10
2022-09-07T15:12:44.277Z,0.20
2022-09-07T15:17:46.137Z,0.20
2022-09-07T15:22:47.741Z,0.20
2022-09-07T15:27:49.298Z,0.10
2022-09-07T15:32:50.762Z,0.30
2022-09-07T15:38:59.548Z,0.40
2022-09-07T15:43:20.333Z,0.13
2022-09-07T15:48:25.328Z,0.20
2022-09-07T15:58:51.814Z,0.20
2022-09-07T16:03:54.399Z,0.00
2022-09-07T16:08:56.025Z,0.00
2022-09-07T16:14:01.688Z,0.10
2022-09-07T16:19:07.189Z,0.13
2022-09-07T16:24:09.178Z,0.08
2022-09-07T16:29:10.633Z,0.10
2022-09-07T16:34:12.528Z,0.00
2022-09-07T16:39:13.966Z,0.20
2022-09-07T16:44:16.389Z,0.08
2022-09-07T16:49:18.059Z,0.17
2022-09-07T16:54:21.053Z,0.13
2022-09-07T16:59:26.740Z,0.15
2022-09-07T17:04:29.060Z,0.13
2022-09-07T17:09:30.571Z,0.10
2022-09-07T17:14:32.060Z,0.10
2022-09-07T17:19:33.731Z,0.10
2022-09-07T17:24:35.340Z,0.20
2022-09-07T17:29:37.404Z,0.20
2022-09-07T17:34:39.139Z,0.40
2022-09-07T17:39:40.605Z,0.15
2022-09-07T17:44:42.090Z,1.20
2022-09-07T17:49:43.633Z,0.70
2022-09-07T17:54:45.087Z,0.30
2022-09-07T18:05:08.252Z,0.57
2022-09-07T18:10:09.959Z,0.10
2022-09-07T18:15:11.460Z,0.22
2022-09-07T18:20:12.969Z,0.13
2022-09-07T18:25:15.884Z,0.20
2022-09-07T18:30:17.505Z,0.05
2022-09-07T18:35:18.985Z,0.17
2022-09-07T18:40:21.468Z,0.25
2022-09-07T18:45:30.223Z,0.10
2022-09-07T18:50:31.888Z,0.30
2022-09-07T18:55:33.337Z,0.20
2022-09-07T19:00:34.781Z,0.20
2022-09-07T19:05:52.821Z,0.10
2022-09-07T19:10:54.631Z,0.20
2022-09-07T19:16:02.796Z,0.20
2022-09-07T19:21:05.433Z,0.13
2022-09-07T19:26:07.504Z,0.10
2022-09-07T19:31:09.011Z,0.15
2022-09-07T19:36:10.513Z,0.20
2022-09-07T19:41:14.072Z,0.10
2022-09-07T19:46:17.345Z,0.25
2022-09-07T19:51:20.991Z,0.20
2022-09-07T19:56:22.549Z,0.15
2022-09-07T20:01:28.326Z,0.25
2022-09-07T20:06:32.770Z,0.32
2022-09-07T20:11:34.980Z,0.22
2022-09-07T20:16:40.034Z,0.17
2022-09-07T20:21:41.815Z,0.20
2022-09-07T20:26:43.236Z,0.10
2022-09-07T20:31:44.805Z,0.10
2022-09-07T20:36:48.498Z,0.20
2022-09-07T20:41:50.074Z,0.20
2022-09-07T20:46:51.549Z,0.10
2022-09-07T20:51:53.077Z,0.10
2022-09-07T20:56:54.510Z,0.20
2022-09-07T21:01:56.074Z,0.30
2022-09-07T21:06:57.557Z,0.30
2022-09-07T21:11:59.001Z,0.30
2022-09-07T21:17:00.481Z,0.30
2022-09-07T21:22:01.918Z,0.10
2022-09-07T21:27:03.383Z,0.30
2022-09-07T21:32:04.911Z,0.22
2022-09-07T21:37:06.352Z,0.30
2022-09-07T21:42:07.773Z,0.40
2022-09-07T21:47:09.256Z,0.30
2022-09-07T21:52:10.994Z,0.17
2022-09-07T21:57:12.570Z,0.30
2022-09-07T22:02:14.063Z,0.10
2022-09-07T22:07:15.536Z,0.35
2022-09-07T22:12:17.001Z,0.38
2022-09-07T22:17:18.479Z,0.20
2022-09-07T22:22:19.928Z,0.30
2022-09-07T22:27:21.360Z,0.30
2022-09-07T22:32:22.797Z,0.20
2022-09-07T22:37:24.778Z,0.20
2022-09-07T22:42:26.303Z,0.20
2022-09-07T22:47:27.729Z,0.30
2022-09-07T22:52:29.166Z,0.25
2022-09-07T22:57:30.601Z,0.25
2022-09-07T23:02:32.057Z,0.30
2022-09-07T23:07:33.494Z,0.50
2022-09-07T23:12:35.011Z,0.20
2022-09-07T23:17:36.488Z,0.40
2022-09-07T23:22:37.941Z,0.32
2022-09-07T23:27:39.709Z,0.30
2022-09-07T23:32:41.139Z,0.20
2022-09-07T23:37:42.582Z,0.30
2022-09-07T23:42:44.016Z,0.20
2022-09-07T23:47:45.448Z,0.30
2022-09-07T23:52:47.255Z,0.20
2022-09-07T23:57:49.128Z,0.30
